createdAt,value
2018-04-28T00:01:48.471Z,90.00
2018-04-28T00:04:15.937Z,89.40
2018-04-28T00:06:43.403Z,89.70
2018-04-28T00:09:10.852Z,89.90
2018-04-28T00:11:38.311Z,90.10
2018-04-28T00:14:05.779Z,90.10
2018-04-28T00:16:59.841Z,90.20
2018-04-28T00:19:28.867Z,90.30
2018-04-28T00:21:57.161Z,90.40
2018-04-28T00:24:31.155Z,90.50
2018-04-28T00:27:10.497Z,90.60
2018-04-28T00:29:37.963Z,90.70
2018-04-28T00:32:06.793Z,90.80
2018-04-28T00:34:50.811Z,90.80
2018-04-28T00:37:21.146Z,90.70
2018-04-28T00:39:58.089Z,90.90
2018-04-28T00:42:29.981Z,90.80
2018-04-28T00:44:57.465Z,91.00
2018-04-28T00:47:24.920Z,91.00
2018-04-28T00:49:57.755Z,91.00
2018-04-28T00:52:27.819Z,91.10
2018-04-28T00:54:55.281Z,91.20
2018-04-28T00:57:52.321Z,91.10
2018-04-28T01:00:42.353Z,91.10
2018-04-28T01:03:09.826Z,90.90
2018-04-28T01:05:44.961Z,90.90
2018-04-28T01:08:12.434Z,90.80
2018-04-28T01:10:39.891Z,90.80
2018-04-28T01:13:07.337Z,90.90
2018-04-28T01:15:37.269Z,90.90
2018-04-28T01:18:24.023Z,91.10
2018-04-28T01:21:02.184Z,91.20
2018-04-28T01:23:48.349Z,91.20
2018-04-28T01:29:28.361Z,91.20
2018-04-28T01:32:13.359Z,91.20
2018-04-28T01:34:43.851Z,91.20
2018-04-28T01:37:34.093Z,91.10
2018-04-28T01:40:03.506Z,91.40
2018-04-28T01:42:35.609Z,91.50
2018-04-28T01:45:06.808Z,91.70
2018-04-28T01:47:52.736Z,92.20
2018-04-28T01:50:20.117Z,92.20
2018-04-28T01:52:50.117Z,92.40
2018-04-28T01:55:28.905Z,92.60
2018-04-28T01:58:00.694Z,92.90
2018-04-28T02:00:52.008Z,92.90
2018-04-28T02:03:52.026Z,93.00
2018-04-28T02:06:43.977Z,93.10
2018-04-28T02:09:12.353Z,93.70
2018-04-28T02:11:55.484Z,93.90
2018-04-28T02:14:59.227Z,94.10
2018-04-28T02:17:41.552Z,94.20
2018-04-28T02:20:22.474Z,94.20
2018-04-28T02:23:07.762Z,94.30
2018-04-28T02:25:40.685Z,94.20
2018-04-28T02:28:15.928Z,94.20
2018-04-28T02:30:46.060Z,94.20
2018-04-28T02:33:13.529Z,94.10
2018-04-28T02:35:55.895Z,94.00
2018-04-28T02:38:26.826Z,93.90
2018-04-28T02:41:01.991Z,94.00
2018-04-28T02:43:45.898Z,94.30
2018-04-28T02:46:14.168Z,93.90
2018-04-28T02:49:05.390Z,93.70
2018-04-28T02:54:56.156Z,93.20
2018-04-28T02:57:46.914Z,93.30
2018-04-28T03:00:31.188Z,93.20
2018-04-28T03:03:00.376Z,93.60
2018-04-28T03:05:33.633Z,93.20
2018-04-28T03:08:03.770Z,93.20
2018-04-28T03:10:34.921Z,93.20
2018-04-28T03:13:02.384Z,93.40
2018-04-28T03:15:29.840Z,93.50
2018-04-28T03:17:59.998Z,93.60
2018-04-28T03:20:31.872Z,93.70
2018-04-28T03:23:00.197Z,93.80
2018-04-28T03:25:31.042Z,93.80
2018-04-28T03:28:05.234Z,93.80
2018-04-28T03:30:42.008Z,93.90
2018-04-28T03:33:12.974Z,93.90
2018-04-28T03:35:45.048Z,93.80
2018-04-28T03:38:13.390Z,93.90
2018-04-28T03:40:42.513Z,94.10
2018-04-28T03:43:29.585Z,93.90
2018-04-28T03:46:32.414Z,93.90
2018-04-28T03:49:06.318Z,94.00
2018-04-28T03:51:34.749Z,94.10
2018-04-28T03:54:04.927Z,94.30
2018-04-28T03:56:34.333Z,94.30
2018-04-28T03:59:13.535Z,94.40
2018-04-28T04:01:53.582Z,94.50
2018-04-28T04:04:42.654Z,94.50
2018-04-28T04:07:14.703Z,94.40
2018-04-28T04:09:45.871Z,94.40
2018-04-28T04:12:23.821Z,94.40
2018-04-28T04:15:00.829Z,94.40
2018-04-28T04:17:36.123Z,94.40
2018-04-28T04:20:20.387Z,94.40
2018-04-28T04:22:51.325Z,94.40
2018-04-28T04:25:35.337Z,94.50
2018-04-28T04:28:05.342Z,94.50
2018-04-28T04:30:59.128Z,94.70
2018-04-28T04:33:44.045Z,94.70
2018-04-28T04:36:14.188Z,94.70
2018-04-28T04:38:45.311Z,94.80
2018-04-28T04:41:24.335Z,94.80
2018-04-28T04:44:08.655Z,94.70
2018-04-28T04:46:41.632Z,94.60
2018-04-28T04:49:20.935Z,94.60
2018-04-28T04:51:49.169Z,94.60
2018-04-28T04:54:26.315Z,94.50
2018-04-28T04:57:04.271Z,94.50
2018-04-28T04:59:53.149Z,94.60
2018-04-28T05:02:46.032Z,94.60
2018-04-28T05:05:15.889Z,94.60
2018-04-28T05:08:00.832Z,94.70
2018-04-28T05:10:32.940Z,94.70
2018-04-28T05:13:04.721Z,94.60
2018-04-28T05:15:43.736Z,94.50
2018-04-28T05:18:23.854Z,94.40
2018-04-28T05:20:53.841Z,94.40
2018-04-28T05:23:27.249Z,94.20
2018-04-28T05:29:14.338Z,93.90
2018-04-28T05:31:57.357Z,93.80
2018-04-28T05:34:53.454Z,93.80
2018-04-28T05:37:27.500Z,93.80
2018-04-28T05:43:29.211Z,93.00
2018-04-28T05:46:09.398Z,93.40
2018-04-28T05:49:03.642Z,93.20
2018-04-28T05:54:50.660Z,92.90
2018-04-28T05:57:30.668Z,92.80
2018-04-28T06:00:23.039Z,92.80
2018-04-28T06:02:56.363Z,92.30
2018-04-28T06:05:33.754Z,92.20
2018-04-28T06:08:23.906Z,92.30
2018-04-28T06:11:07.913Z,92.20
2018-04-28T06:13:38.849Z,92.20
2018-04-28T06:16:27.945Z,91.90
2018-04-28T06:18:59.873Z,91.70
2018-04-28T06:21:27.325Z,91.70
2018-04-28T06:23:54.773Z,91.00
2018-04-28T06:26:22.287Z,90.40
2018-04-28T06:28:49.761Z,90.00
2018-04-28T06:31:17.229Z,90.00
2018-04-28T06:33:45.487Z,90.00
2018-04-28T06:36:12.933Z,90.00
2018-04-28T06:38:40.418Z,89.80
2018-04-28T06:41:07.893Z,89.70
2018-04-28T06:43:35.357Z,89.20
2018-04-28T06:46:02.825Z,88.20
2018-04-28T06:48:30.282Z,87.70
2018-04-28T06:50:57.764Z,87.40
2018-04-28T06:53:26.020Z,83.60
2018-04-28T06:55:53.493Z,83.60
2018-04-28T06:58:20.952Z,83.10
2018-04-28T07:00:48.418Z,83.40
2018-04-28T07:03:15.884Z,83.40
2018-04-28T07:05:43.357Z,84.30
2018-04-28T07:08:11.576Z,85.90
2018-04-28T07:10:39.048Z,85.80
2018-04-28T07:13:06.514Z,86.00
2018-04-28T07:15:34.017Z,86.50
2018-04-28T07:18:01.478Z,86.20
2018-04-28T07:20:28.946Z,86.40
2018-04-28T07:22:56.414Z,86.30
2018-04-28T07:25:23.877Z,86.30
2018-04-28T07:27:51.357Z,86.40
2018-04-28T07:30:19.568Z,85.80
2018-04-28T07:32:47.053Z,85.80
2018-04-28T07:35:14.556Z,85.70
2018-04-28T07:37:41.983Z,85.20
2018-04-28T07:40:10.223Z,85.30
2018-04-28T07:42:37.703Z,84.60
2018-04-28T07:45:05.191Z,84.20
2018-04-28T07:47:32.718Z,83.90
2018-04-28T07:50:00.170Z,84.00
2018-04-28T07:52:28.409Z,83.30
2018-04-28T07:54:55.892Z,83.30
2018-04-28T07:57:23.345Z,83.20
2018-04-28T07:59:50.812Z,83.40
2018-04-28T08:02:18.275Z,83.80
2018-04-28T08:04:45.748Z,83.10
2018-04-28T08:07:13.210Z,83.90
2018-04-28T08:09:40.667Z,83.60
2018-04-28T08:12:08.123Z,83.70
2018-04-28T08:14:35.591Z,84.10
2018-04-28T08:17:03.059Z,82.70
2018-04-28T08:19:30.522Z,82.20
2018-04-28T08:21:57.987Z,81.50
2018-04-28T08:24:25.439Z,81.00
2018-04-28T08:26:52.935Z,80.50
2018-04-28T08:29:21.180Z,79.40
2018-04-28T08:31:48.639Z,79.10
2018-04-28T08:34:16.097Z,78.70
2018-04-28T08:36:43.553Z,78.30
2018-04-28T08:39:11.007Z,77.20
2018-04-28T08:41:38.489Z,77.90
2018-04-28T08:44:05.935Z,77.40
2018-04-28T08:46:33.403Z,77.30
2018-04-28T08:49:00.857Z,76.90
2018-04-28T08:51:28.327Z,77.50
2018-04-28T08:53:55.817Z,75.90
2018-04-28T08:56:23.279Z,74.80
2018-04-28T08:58:51.519Z,74.60
2018-04-28T09:01:18.985Z,74.60
2018-04-28T09:03:46.448Z,72.90
2018-04-28T09:06:13.920Z,72.10
2018-04-28T09:08:41.375Z,69.30
2018-04-28T09:11:08.847Z,69.80
2018-04-28T09:13:36.338Z,69.40
2018-04-28T09:16:03.797Z,68.90
2018-04-28T09:18:31.281Z,68.50
2018-04-28T09:20:58.747Z,69.70
2018-04-28T09:23:26.217Z,69.00
2018-04-28T09:25:53.676Z,69.70
2018-04-28T09:28:21.161Z,68.30
2018-04-28T09:30:49.406Z,66.20
2018-04-28T09:33:16.864Z,66.20
2018-04-28T09:35:44.321Z,67.40
2018-04-28T09:38:12.539Z,65.90
2018-04-28T09:40:39.976Z,65.90
2018-04-28T09:43:07.464Z,63.90
2018-04-28T09:45:34.920Z,61.90
2018-04-28T09:48:02.385Z,62.80
2018-04-28T09:50:29.838Z,63.90
2018-04-28T09:52:57.302Z,64.40
2018-04-28T09:55:24.785Z,65.00
2018-04-28T09:58:02.896Z,65.40
2018-04-28T10:00:36.730Z,65.60
2018-04-28T10:03:05.088Z,65.50
2018-04-28T10:05:33.338Z,66.70
2018-04-28T10:08:00.793Z,66.70
2018-04-28T10:10:28.252Z,62.90
2018-04-28T10:12:55.736Z,63.00
2018-04-28T10:15:23.186Z,64.60
2018-04-28T10:17:50.693Z,62.40
2018-04-28T10:20:18.172Z,60.40
2018-04-28T10:22:45.570Z,59.40
2018-04-28T10:25:13.069Z,58.90
2018-04-28T10:27:40.552Z,58.40
2018-04-28T10:30:08.764Z,57.70
2018-04-28T10:32:36.221Z,57.60
2018-04-28T10:35:03.678Z,57.50
2018-04-28T10:37:31.169Z,58.60
2018-04-28T10:39:58.630Z,57.00
2018-04-28T10:42:26.080Z,57.80
2018-04-28T10:44:53.542Z,58.10
2018-04-28T10:47:21.014Z,58.70
2018-04-28T10:49:48.487Z,57.80
2018-04-28T10:52:15.945Z,58.90
2018-04-28T10:54:43.428Z,58.40
2018-04-28T10:57:10.890Z,58.40
2018-04-28T10:59:38.346Z,57.70
2018-04-28T11:02:05.832Z,57.70
2018-04-28T11:04:33.279Z,57.90
2018-04-28T11:07:00.740Z,57.60
2018-04-28T11:09:28.207Z,57.50
2018-04-28T11:11:55.667Z,57.70
2018-04-28T11:14:23.146Z,57.00
2018-04-28T11:16:50.617Z,57.40
2018-04-28T11:19:18.084Z,56.60
2018-04-28T11:21:46.323Z,57.30
2018-04-28T11:24:13.759Z,57.30
2018-04-28T11:26:41.236Z,56.80
2018-04-28T11:29:08.705Z,56.70
2018-04-28T11:31:36.155Z,56.60
2018-04-28T11:34:03.623Z,57.20
2018-04-28T11:36:31.098Z,57.10
2018-04-28T11:38:58.579Z,57.60
2018-04-28T11:41:26.038Z,55.90
2018-04-28T11:43:53.508Z,54.60
2018-04-28T11:46:20.957Z,54.80
2018-04-28T11:48:48.437Z,54.70
2018-04-28T11:51:15.890Z,55.30
2018-04-28T11:53:44.105Z,55.10
2018-04-28T11:56:11.558Z,55.00
2018-04-28T11:58:39.009Z,54.60
2018-04-28T12:01:06.465Z,54.70
2018-04-28T12:03:33.915Z,53.70
2018-04-28T12:06:01.369Z,52.70
2018-04-28T12:08:28.851Z,52.40
2018-04-28T12:10:56.319Z,51.30
2018-04-28T12:13:23.771Z,50.50
2018-04-28T12:15:51.234Z,50.90
2018-04-28T12:18:18.684Z,51.30
2018-04-28T12:20:46.142Z,51.60
2018-04-28T12:23:13.616Z,50.30
2018-04-28T12:25:41.074Z,50.70
2018-04-28T12:28:08.517Z,52.90
2018-04-28T12:30:35.993Z,52.50
2018-04-28T12:33:03.470Z,52.00
2018-04-28T12:35:30.953Z,52.50
2018-04-28T12:37:59.170Z,52.00
2018-04-28T12:40:27.404Z,51.20
2018-04-28T12:42:54.846Z,51.00
2018-04-28T12:45:22.326Z,50.80
2018-04-28T12:47:49.788Z,51.60
2018-04-28T12:50:17.260Z,51.00
2018-04-28T12:52:44.726Z,50.20
2018-04-28T12:55:12.196Z,49.30
2018-04-28T12:57:39.723Z,49.00
2018-04-28T13:00:07.111Z,48.70
2018-04-28T13:02:34.584Z,48.80
2018-04-28T13:05:02.043Z,48.10
2018-04-28T13:07:29.507Z,48.70
2018-04-28T13:09:56.971Z,49.00
2018-04-28T13:12:24.424Z,49.10
2018-04-28T13:14:51.903Z,50.00
2018-04-28T13:17:20.188Z,50.10
2018-04-28T13:19:47.588Z,50.10
2018-04-28T13:22:15.813Z,51.60
2018-04-28T13:24:43.272Z,51.60
2018-04-28T13:27:10.730Z,52.20
2018-04-28T13:29:38.186Z,52.20
2018-04-28T13:32:05.632Z,51.50
2018-04-28T13:34:33.092Z,52.60
2018-04-28T13:37:01.323Z,53.70
2018-04-28T13:39:28.862Z,53.70
2018-04-28T13:41:56.330Z,53.70
2018-04-28T13:44:23.805Z,53.00
2018-04-28T13:46:51.310Z,52.30
2018-04-28T13:49:18.770Z,52.30
2018-04-28T13:51:48.270Z,52.10
2018-04-28T13:54:15.784Z,52.10
2018-04-28T13:56:43.328Z,51.60
2018-04-28T13:59:11.607Z,52.90
2018-04-28T14:01:39.832Z,53.50
2018-04-28T14:04:07.301Z,53.40
2018-04-28T14:06:34.759Z,53.70
2018-04-28T14:09:02.225Z,55.60
2018-04-28T14:11:29.713Z,56.00
2018-04-28T14:13:57.171Z,58.20
2018-04-28T14:16:24.637Z,59.00
2018-04-28T14:18:52.100Z,60.40
2018-04-28T14:21:19.564Z,61.90
2018-04-28T14:23:47.025Z,63.90
2018-04-28T14:26:14.483Z,64.60
2018-04-28T14:28:42.717Z,66.10
2018-04-28T14:31:10.947Z,66.80
2018-04-28T14:33:38.433Z,66.70
2018-04-28T14:36:05.889Z,66.30
2018-04-28T14:38:33.341Z,67.90
2018-04-28T14:41:00.801Z,67.70
2018-04-28T14:43:29.023Z,66.80
2018-04-28T14:45:57.261Z,67.70
2018-04-28T14:48:24.712Z,67.70
2018-04-28T14:50:52.168Z,68.10
2018-04-28T14:53:19.628Z,68.60
2018-04-28T14:55:47.102Z,68.50
2018-04-28T14:58:14.580Z,68.10
2018-04-28T15:00:42.050Z,67.20
2018-04-28T15:03:09.519Z,66.40
2018-04-28T15:05:36.990Z,66.80
2018-04-28T15:08:04.456Z,67.00
2018-04-28T15:10:31.924Z,65.90
2018-04-28T15:13:01.935Z,65.00
2018-04-28T15:15:29.642Z,65.00
2018-04-28T15:17:57.893Z,65.20
2018-04-28T15:20:25.386Z,65.10
2018-04-28T15:22:53.664Z,64.40
2018-04-28T15:25:21.073Z,64.20
2018-04-28T15:27:48.541Z,64.60
2018-04-28T15:30:15.997Z,64.70
2018-04-28T15:32:43.463Z,65.80
2018-04-28T15:35:10.946Z,66.60
2018-04-28T15:37:38.413Z,67.00
2018-04-28T15:40:05.891Z,67.70
2018-04-28T15:42:34.139Z,68.70
2018-04-28T15:45:01.590Z,67.80
2018-04-28T15:47:29.053Z,68.00
2018-04-28T15:49:56.579Z,67.60
2018-04-28T15:52:23.990Z,67.30
2018-04-28T15:54:51.453Z,66.10
2018-04-28T15:57:18.913Z,66.90
2018-04-28T15:59:46.377Z,66.00
2018-04-28T16:02:14.590Z,66.50
2018-04-28T16:04:42.053Z,66.50
2018-04-28T16:07:09.529Z,65.50
2018-04-28T16:09:36.981Z,65.60
2018-04-28T16:12:04.471Z,65.30
2018-04-28T16:14:31.930Z,62.80
2018-04-28T16:17:00.163Z,62.30
2018-04-28T16:19:27.635Z,62.30
2018-04-28T16:21:55.124Z,63.60
2018-04-28T16:24:22.563Z,64.30
2018-04-28T16:26:51.561Z,66.80
2018-04-28T16:29:19.006Z,66.70
2018-04-28T16:31:46.471Z,67.00
2018-04-28T16:34:13.971Z,67.60
2018-04-28T16:36:41.427Z,68.90
2018-04-28T16:39:08.884Z,71.40
2018-04-28T16:41:36.349Z,72.90
2018-04-28T16:44:03.811Z,74.30
2018-04-28T16:46:31.273Z,74.90
2018-04-28T16:48:58.749Z,77.20
2018-04-28T16:51:26.420Z,79.80
2018-04-28T16:53:54.872Z,82.50
2018-04-28T16:56:22.364Z,82.50
2018-04-28T16:58:49.818Z,83.50
2018-04-28T17:01:17.280Z,83.20
2018-04-28T17:03:44.757Z,83.80
2018-04-28T17:06:12.226Z,84.70
2018-04-28T17:08:39.703Z,86.20
2018-04-28T17:11:07.967Z,89.50
2018-04-28T17:13:35.431Z,89.50
2018-04-28T17:16:02.898Z,90.10
2018-04-28T17:18:30.392Z,89.60
2018-04-28T17:20:57.934Z,89.40
2018-04-28T17:23:26.177Z,88.80
2018-04-28T17:25:53.690Z,88.80
2018-04-28T17:28:22.046Z,89.00
2018-04-28T17:30:49.590Z,88.90
2018-04-28T17:33:17.082Z,88.30
2018-04-28T17:35:44.623Z,87.70
2018-04-28T17:38:12.150Z,88.20
2018-04-28T17:40:39.693Z,88.50
2018-04-28T17:43:08.876Z,90.20
2018-04-28T17:45:36.357Z,90.20
2018-04-28T17:48:04.689Z,90.90
2018-04-28T17:50:32.575Z,90.50
2018-04-28T17:53:00.079Z,91.00
2018-04-28T17:55:28.422Z,91.10
2018-04-28T17:57:56.054Z,91.10
2018-04-28T18:00:24.458Z,91.50
2018-04-28T18:02:52.141Z,91.50
2018-04-28T18:05:19.493Z,91.80
2018-04-28T18:07:47.041Z,92.00
2018-04-28T18:10:14.563Z,92.40
2018-04-28T18:12:42.908Z,92.70
2018-04-28T18:15:10.448Z,92.40
2018-04-28T18:17:37.950Z,92.60
2018-04-28T18:20:05.519Z,92.60
2018-04-28T18:22:32.995Z,92.90
2018-04-28T18:25:00.456Z,93.10
2018-04-28T18:27:27.920Z,93.10
2018-04-28T18:29:55.376Z,93.20
2018-04-28T18:32:22.865Z,93.50
2018-04-28T18:34:51.096Z,93.60
2018-04-28T18:37:18.551Z,93.60
2018-04-28T18:39:46.020Z,93.60
2018-04-28T18:42:13.483Z,93.70
2018-04-28T18:44:42.234Z,93.80
2018-04-28T18:47:11.425Z,93.70
2018-04-28T18:49:40.546Z,94.00
2018-04-28T18:52:08.858Z,94.40
2018-04-28T18:54:36.440Z,94.30
2018-04-28T18:57:04.016Z,95.00
2018-04-28T18:59:31.590Z,95.10
2018-04-28T19:02:00.046Z,95.40
2018-04-28T19:04:27.612Z,95.90
2018-04-28T19:06:55.212Z,96.00
2018-04-28T19:09:22.775Z,95.90
2018-04-28T19:11:50.405Z,95.70
2018-04-28T19:14:18.242Z,95.80
2018-04-28T19:16:46.393Z,95.90
2018-04-28T19:19:13.872Z,95.90
2018-04-28T19:21:41.336Z,95.80
2018-04-28T19:24:08.794Z,96.20
2018-04-28T19:26:36.255Z,96.40
2018-04-28T19:29:03.738Z,96.40
2018-04-28T19:31:31.338Z,96.60
2018-04-28T19:33:58.814Z,96.90
2018-04-28T19:36:26.272Z,97.00
2018-04-28T19:38:53.742Z,97.40
2018-04-28T19:41:21.224Z,97.80
2018-04-28T19:43:49.462Z,98.00
2018-04-28T19:46:16.946Z,98.00
2018-04-28T19:48:44.438Z,97.90
2018-04-28T19:51:11.874Z,97.90
2018-04-28T19:53:39.424Z,98.00
2018-04-28T19:56:06.882Z,97.90
2018-04-28T19:58:34.353Z,97.80
2018-04-28T20:01:02.600Z,98.20
2018-04-28T20:03:30.857Z,98.20
2018-04-28T20:05:58.328Z,98.20
2018-04-28T20:08:25.798Z,98.20
2018-04-28T20:10:53.268Z,98.20
2018-04-28T20:13:20.734Z,98.10
2018-04-28T20:15:48.972Z,98.90
2018-04-28T20:18:16.445Z,98.50
2018-04-28T20:20:43.920Z,98.60
2018-04-28T20:23:23.298Z,98.60
2018-04-28T20:25:50.766Z,98.50
2018-04-28T20:28:19.006Z,98.60
2018-04-28T20:30:46.478Z,98.60
2018-04-28T20:33:13.947Z,98.70
2018-04-28T20:35:41.433Z,98.70
2018-04-28T20:38:09.660Z,98.90
2018-04-28T20:40:37.137Z,98.90
2018-04-28T20:43:04.584Z,99.00
2018-04-28T20:45:32.826Z,99.20
2018-04-28T20:48:00.310Z,99.20
2018-04-28T20:50:27.786Z,99.20
2018-04-28T20:52:55.247Z,99.20
2018-04-28T20:55:22.712Z,99.30
2018-04-28T20:57:50.171Z,99.30
2018-04-28T21:00:17.672Z,99.30
2018-04-28T21:02:45.143Z,99.40
2018-04-28T21:05:12.606Z,99.50
2018-04-28T21:07:40.062Z,99.40
2018-04-28T21:10:07.532Z,99.40
2018-04-28T21:12:35.002Z,99.50
2018-04-28T21:15:03.235Z,99.50
2018-04-28T21:17:30.703Z,99.50
2018-04-28T21:19:58.159Z,99.60
2018-04-28T21:22:25.618Z,99.70
2018-04-28T21:24:53.102Z,99.70
2018-04-28T21:27:20.573Z,99.60
2018-04-28T21:29:48.043Z,99.60
2018-04-28T21:32:17.007Z,99.80
2018-04-28T21:34:44.486Z,99.80
2018-04-28T21:37:11.956Z,99.80
2018-04-28T21:39:40.189Z,99.90
2018-04-28T21:42:07.652Z,99.90
2018-04-28T21:44:35.883Z,99.90
2018-04-28T21:47:03.342Z,99.90
2018-04-28T21:49:30.829Z,99.90
2018-04-28T21:51:58.296Z,99.90
2018-04-28T21:54:25.764Z,99.90
2018-04-28T21:56:53.241Z,99.90
2018-04-28T21:59:21.474Z,99.90
2018-04-28T22:01:48.956Z,99.90
2018-04-28T22:04:16.440Z,99.90
2018-04-28T22:06:43.888Z,99.90
2018-04-28T22:09:11.342Z,99.90
2018-04-28T22:11:38.800Z,99.90
2018-04-28T22:14:06.288Z,99.90
2018-04-28T22:16:33.760Z,99.90
2018-04-28T22:19:01.217Z,99.90
2018-04-28T22:21:28.668Z,99.90
2018-04-28T22:23:56.137Z,99.90
2018-04-28T22:26:23.620Z,99.90
2018-04-28T22:28:51.855Z,99.90
2018-04-28T22:31:20.084Z,99.90
2018-04-28T22:33:48.321Z,99.90
2018-04-28T22:36:15.786Z,99.90
2018-04-28T22:38:43.262Z,99.90
2018-04-28T22:41:10.724Z,99.90
2018-04-28T22:43:38.171Z,99.90
2018-04-28T22:46:05.632Z,99.90
2018-04-28T22:48:33.079Z,99.90
2018-04-28T22:51:00.559Z,99.90
2018-04-28T22:53:28.025Z,99.90
2018-04-28T22:55:55.496Z,99.90
2018-04-28T22:58:22.959Z,99.90
2018-04-28T23:00:50.416Z,99.90
2018-04-28T23:03:17.876Z,99.90
2018-04-28T23:05:45.328Z,99.90
2018-04-28T23:08:12.801Z,99.90
2018-04-28T23:10:40.259Z,99.90
2018-04-28T23:13:07.723Z,99.90
2018-04-28T23:15:35.204Z,99.90
2018-04-28T23:18:02.660Z,99.90
2018-04-28T23:20:30.124Z,99.90
2018-04-28T23:22:57.588Z,99.90
2018-04-28T23:25:25.060Z,99.90
2018-04-28T23:27:52.548Z,99.90
2018-04-28T23:30:20.023Z,99.90
2018-04-28T23:32:48.246Z,99.90
2018-04-28T23:35:15.695Z,99.90
2018-04-28T23:37:43.165Z,99.90
2018-04-28T23:40:10.632Z,99.90
2018-04-28T23:42:38.126Z,99.90
2018-04-28T23:45:05.587Z,99.90
2018-04-28T23:47:33.040Z,99.90
2018-04-28T23:50:00.525Z,99.90
2018-04-28T23:52:28.023Z,99.90
2018-04-28T23:54:56.238Z,99.90
2018-04-28T23:57:23.698Z,99.90
2018-04-28T23:59:51.157Z,99.90
